Time;durP1;ratioP1;P1;durP2;ratioP2;P2;SDS_P1;SDS_P2;PMS_P1;PMS_P2;Temp;Humidity;BMP_temperature;BMP_pressure;BME280_temperature;BME280_humidity;BME280_pressure;Samples;Min_cycle;Max_cycle;Signal;HPM_P1;HPM_P2
2021/10/13 00:00:55;;;;;;;9.25;2.22;;;;;;;6.40;100.00;102561.69;5092047;28;20032;-75
2021/10/13 00:03:20;;;;;;;7.38;1.80;;;;;;;6.36;100.00;102547.78;5092973;28;20119;-75
2021/10/13 00:05:46;;;;;;;8.32;2.00;;;;;;;6.34;100.00;102549.63;5092298;28;20028;-76
2021/10/13 00:08:11;;;;;;;9.52;2.30;;;;;;;6.32;100.00;102552.31;5074965;28;20040;-75
2021/10/13 00:10:36;;;;;;;10.52;2.33;;;;;;;6.30;100.00;102553.31;5092094;28;20103;-75
2021/10/13 00:13:02;;;;;;;11.38;2.45;;;;;;;6.23;100.00;102549.25;5092431;28;20039;-75
2021/10/13 00:15:28;;;;;;;10.85;2.67;;;;;;;6.16;100.00;102546.88;5074760;28;20039;-75
2021/10/13 00:17:53;;;;;;;12.52;3.03;;;;;;;6.15;100.00;102537.25;5092221;28;20028;-76
2021/10/13 00:20:18;;;;;;;11.95;3.05;;;;;;;6.14;100.00;102539.94;5092485;28;20115;-75
2021/10/13 00:22:44;;;;;;;22.08;3.70;;;;;;;6.16;100.00;102541.56;5092301;28;20040;-75
2021/10/13 00:25:09;;;;;;;12.93;3.30;;;;;;;6.28;100.00;102541.97;5092943;28;20028;-76
2021/10/13 00:27:35;;;;;;;11.70;3.15;;;;;;;6.43;100.00;102546.53;5092143;28;20059;-75
2021/10/13 00:30:00;;;;;;;12.95;3.25;;;;;;;6.57;100.00;102545.94;5091821;28;20036;-75
2021/10/13 00:32:28;;;;;;;16.05;3.30;;;;;;;6.66;100.00;102553.44;5092743;28;20036;-75
2021/10/13 00:34:53;;;;;;;11.70;3.15;;;;;;;6.74;100.00;102557.50;5091952;28;20120;-76
2021/10/13 00:37:19;;;;;;;13.80;3.22;;;;;;;6.78;100.00;102551.16;5092527;28;20448;-75
2021/10/13 00:39:44;;;;;;;11.02;3.30;;;;;;;6.81;100.00;102553.66;5092158;28;20032;-76
2021/10/13 00:42:09;;;;;;;9.68;2.83;;;;;;;6.81;100.00;102553.66;5092521;28;20032;-75
2021/10/13 00:44:35;;;;;;;12.38;3.20;;;;;;;6.78;100.00;102559.09;5092416;28;20036;-75
2021/10/13 00:47:00;;;;;;;14.48;3.25;;;;;;;6.80;100.00;102557.22;5091821;28;20073;-75
2021/10/13 00:49:26;;;;;;;11.15;3.20;;;;;;;6.80;100.00;102558.06;5074107;28;20472;-74
2021/10/13 00:51:52;;;;;;;13.45;2.80;;;;;;;6.78;100.00;102567.88;5091892;28;20438;-75
2021/10/13 00:54:18;;;;;;;11.07;2.55;;;;;;;6.79;100.00;102564.31;5092332;28;20032;-75
2021/10/13 00:56:44;;;;;;;13.98;3.22;;;;;;;6.85;100.00;102573.72;5073748;28;20066;-76
2021/10/13 00:59:09;;;;;;;17.30;3.05;;;;;;;6.89;100.00;102562.91;5092380;28;20415;-75
2021/10/13 01:01:51;;;;;;;9.98;3.08;;;;;;;6.96;100.00;102568.78;5092293;28;20024;-75
2021/10/13 01:04:28;;;;;;;16.05;3.33;;;;;;;6.99;100.00;102571.28;5092444;28;20089;-75
2021/10/13 01:07:24;;;;;;;12.45;3.20;;;;;;;6.99;100.00;102557.22;5091892;28;20032;-75
2021/10/13 01:10:17;;;;;;;16.05;3.10;;;;;;;6.92;100.00;102561.91;5091604;28;20028;-76
2021/10/13 01:13:01;;;;;;;12.40;3.00;;;;;;;6.86;100.00;102571.00;5092311;28;20540;-76
2021/10/13 01:15:43;;;;;;;16.25;3.60;;;;;;;6.81;100.00;102553.66;5092549;28;20028;-76
2021/10/13 01:18:15;;;;;;;;;;;;;;;6.74;100.00;102554.88;5092331;28;20084;-76
2021/10/13 01:20:44;;;;;;;32.50;12.25;;;;;;;6.75;100.00;102559.19;5093535;28;19912;-76
2021/10/13 01:23:43;;;;;;;40.95;15.57;;;;;;;6.81;100.00;102564.22;5095535;28;20036;-75
2021/10/13 01:26:34;;;;;;;106.95;43.90;;;;;;;6.97;100.00;102572.28;5095313;28;20079;-76
2021/10/13 01:29:04;;;;;;;86.43;34.13;;;;;;;7.05;100.00;102573.63;5095138;28;20027;-76
2021/10/13 01:31:42;;;;;;;88.50;35.15;;;;;;;7.15;100.00;102571.41;5095781;28;20035;-76
2021/10/13 01:34:18;;;;;;;68.47;25.35;;;;;;;7.28;100.00;102568.16;5095554;28;20257;-76
2021/10/13 01:36:49;;;;;;;73.55;25.95;;;;;;;7.38;100.00;102564.13;5096009;28;20036;-76
2021/10/13 01:39:14;;;;;;;51.55;17.23;;;;;;;7.44;100.00;102569.13;5095959;28;20024;-76
2021/10/13 01:41:44;;;;;;;42.17;16.77;;;;;;;7.47;100.00;102568.13;5095677;28;20024;-76
2021/10/13 01:44:12;;;;;;;29.70;10.43;;;;;;;7.48;100.00;102568.03;5095023;28;20068;-75
2021/10/13 01:46:39;;;;;;;23.10;6.75;;;;;;;7.51;100.00;102578.47;5095595;28;20032;-76
2021/10/13 01:49:06;;;;;;;28.77;5.88;;;;;;;7.52;100.00;102580.16;5094867;28;20070;-76
2021/10/13 01:51:32;;;;;;;21.05;4.43;;;;;;;7.53;100.00;102573.94;5095475;28;20044;-76
2021/10/13 01:54:00;;;;;;;15.90;3.45;;;;;;;7.54;100.00;102574.81;5094641;28;20384;-76
2021/10/13 01:56:27;;;;;;;16.52;3.67;;;;;;;7.52;100.00;102574.88;5095349;28;20035;-76
2021/10/13 01:59:00;;;;;;;14.73;3.20;;;;;;;7.50;100.00;102570.59;5094672;28;20116;-77
2021/10/13 02:01:28;;;;;;;11.45;3.00;;;;;;;7.47;100.00;102571.59;5094975;28;20073;-76
2021/10/13 02:03:56;;;;;;;9.48;2.60;;;;;;;7.46;100.00;102577.84;5076359;28;20025;-76
2021/10/13 02:06:24;;;;;;;11.05;2.90;;;;;;;7.43;100.00;102570.03;5095088;28;20024;-76
2021/10/13 02:08:52;;;;;;;10.38;2.83;;;;;;;7.37;100.00;102565.91;5095119;28;20028;-76
2021/10/13 02:11:24;;;;;;;15.52;3.30;;;;;;;7.31;100.00;102576.78;5094996;28;20024;-76
2021/10/13 02:13:50;;;;;;;13.68;3.20;;;;;;;7.22;100.00;102578.09;5095387;28;20050;-76
2021/10/13 02:16:17;;;;;;;13.10;3.33;;;;;;;7.11;100.00;102576.94;5094380;28;20043;-76
2021/10/13 02:18:45;;;;;;;11.77;2.45;;;;;;;6.97;100.00;102578.44;5095032;28;20028;-76
2021/10/13 02:21:13;;;;;;;12.32;2.90;;;;;;;6.85;100.00;102586.94;5094149;28;20036;-76
2021/10/13 02:23:40;;;;;;;9.88;2.97;;;;;;;6.72;100.00;102594.63;5094888;28;20111;-75
2021/10/13 02:26:21;;;;;;;13.02;3.30;;;;;;;6.71;100.00;102595.53;5094255;28;20127;-76
2021/10/13 02:28:49;;;;;;;;;;;;;;;6.73;100.00;102598.09;5095065;28;20032;-76
2021/10/13 02:31:15;;;;;;;9.18;3.30;;;;;;;6.77;100.00;102597.91;5094018;28;19962;-76
2021/10/13 02:33:41;;;;;;;12.25;3.90;;;;;;;6.84;100.00;102607.28;5093836;28;20042;-76
2021/10/13 02:36:06;;;;;;;17.95;3.60;;;;;;;6.89;100.00;102601.75;5094067;28;20032;-76
2021/10/13 02:38:32;;;;;;;13.55;3.35;;;;;;;6.89;100.00;102601.75;5094495;28;20043;-75
2021/10/13 02:40:58;;;;;;;13.32;4.30;;;;;;;6.88;100.00;102600.03;5093971;28;20032;-76
2021/10/13 02:43:24;;;;;;;12.45;4.05;;;;;;;6.86;100.00;102597.47;5094403;28;20055;-75
2021/10/13 02:46:02;;;;;;;10.93;4.13;;;;;;;6.85;100.00;102593.13;5094382;28;20452;-75
2021/10/13 02:48:31;;;;;;;15.60;4.40;;;;;;;6.86;100.00;102593.97;5094248;28;20085;-76
2021/10/13 02:51:01;;;;;;;10.38;4.05;;;;;;;6.87;100.00;102585.97;5093530;28;20085;-80
2021/10/13 02:53:44;;;;;;;13.65;5.20;;;;;;;6.91;100.00;102589.31;5094278;28;20028;-76
2021/10/13 02:56:20;;;;;;;17.67;4.55;;;;;;;6.93;100.00;102583.97;5093656;28;20028;-76
2021/10/13 02:59:09;;;;;;;13.38;4.53;;;;;;;6.97;100.00;102580.22;5093843;28;20028;-76
2021/10/13 03:01:39;;;;;;;21.42;5.22;;;;;;;6.98;100.00;102587.25;5093879;28;20077;-75
2021/10/13 03:04:09;;;;;;;16.10;4.65;;;;;;;7.00;100.00;102588.88;5093359;28;20075;-76
2021/10/13 03:06:38;;;;;;;14.77;4.18;;;;;;;7.02;100.00;102597.59;5075864;28;20111;-76
2021/10/13 03:09:05;;;;;;;17.88;4.25;;;;;;;7.06;100.00;102599.19;5093483;28;20028;-76
2021/10/13 03:11:33;;;;;;;13.70;3.78;;;;;;;7.10;100.00;102604.31;5093865;28;20038;-76
2021/10/13 03:14:02;;;;;;;15.25;4.15;;;;;;;7.13;100.00;102606.81;5093861;28;20051;-76
2021/10/13 03:16:28;;;;;;;13.52;3.95;;;;;;;7.16;100.00;102612.81;5093924;28;20020;-76
2021/10/13 03:18:55;;;;;;;16.50;3.60;;;;;;;7.22;100.00;102622.25;5093834;28;20024;-76
2021/10/13 03:21:24;;;;;;;21.98;4.07;;;;;;;7.28;100.00;102623.75;5092910;28;20040;-75
2021/10/13 03:23:50;;;;;;;25.75;3.97;;;;;;;7.30;100.00;102628.06;5093657;28;20032;-76
2021/10/13 03:26:15;;;;;;;15.80;2.88;;;;;;;7.33;100.00;102638.50;5092578;28;20044;-76
2021/10/13 03:28:41;;;;;;;16.13;2.58;;;;;;;7.38;100.00;102630.34;5093407;28;20039;-76
2021/10/13 03:31:07;;;;;;;14.63;2.13;;;;;;;7.41;100.00;102631.03;5092887;28;20031;-76
2021/10/13 03:33:33;;;;;;;14.70;2.10;;;;;;;7.46;100.00;102629.97;5093203;28;20028;-76
2021/10/13 03:35:59;;;;;;;13.70;2.15;;;;;;;7.45;100.00;102631.75;5093433;28;20475;-75
2021/10/13 03:38:25;;;;;;;10.80;2.28;;;;;;;7.45;100.00;102625.59;5092516;28;20035;-77
2021/10/13 03:40:50;;;;;;;10.40;1.67;;;;;;;7.44;100.00;102630.03;5093404;28;20388;-76
2021/10/13 03:43:16;;;;;;;6.50;1.50;;;;;;;7.43;100.00;102622.16;5074200;28;20036;-76
2021/10/13 03:45:41;;;;;;;10.45;1.50;;;;;;;7.40;100.00;102618.75;5092883;28;20505;-77
2021/10/13 03:48:07;;;;;;;10.25;2.03;;;;;;;7.39;100.00;102614.38;5092634;28;20028;-77
2021/10/13 03:50:33;;;;;;;7.63;1.50;;;;;;;7.41;100.00;102607.19;5093056;28;20127;-77
2021/10/13 03:52:58;;;;;;;9.65;1.50;;;;;;;7.42;100.00;102613.38;5092738;28;20077;-77
2021/10/13 03:55:23;;;;;;;9.77;1.80;;;;;;;7.41;100.00;102609.84;5074384;28;20126;-77
2021/10/13 03:57:49;;;;;;;5.47;1.73;;;;;;;7.39;100.00;102609.06;5093223;28;20032;-77
2021/10/13 04:00:17;;;;;;;5.75;1.58;;;;;;;7.37;100.00;102615.38;5092812;28;20372;-77
2021/10/13 04:02:43;;;;;;;7.53;1.45;;;;;;;7.31;100.00;102613.03;5093190;28;20042;-77
2021/10/13 04:05:10;;;;;;;4.93;1.48;;;;;;;7.24;100.00;102620.41;5074191;28;20032;-78
2021/10/13 04:07:36;;;;;;;8.30;1.63;;;;;;;7.14;100.00;102611.19;5093581;28;20133;-76
2021/10/13 04:10:03;;;;;;;7.50;1.58;;;;;;;7.00;100.00;102610.06;5092730;28;20071;-76
2021/10/13 04:12:29;;;;;;;7.32;1.40;;;;;;;6.86;100.00;102610.69;5074436;28;20051;-76
2021/10/13 04:14:55;;;;;;;7.63;1.60;;;;;;;6.75;100.00;102613.00;5092825;28;20032;-76
2021/10/13 04:17:20;;;;;;;7.18;1.42;;;;;;;6.63;100.00;102622.34;5092161;28;20252;-76
2021/10/13 04:19:46;;;;;;;5.65;1.50;;;;;;;6.54;100.00;102617.47;5092796;28;20024;-76
2021/10/13 04:22:11;;;;;;;9.98;1.70;;;;;;;6.44;100.00;102616.19;5091711;28;20044;-76
2021/10/13 04:24:36;;;;;;;7.32;1.70;;;;;;;6.33;100.00;102614.00;5092703;28;20028;-76
2021/10/13 04:27:02;;;;;;;8.27;2.03;;;;;;;6.25;100.00;102613.47;5092765;28;20082;-76
2021/10/13 04:29:28;;;;;;;6.15;1.88;;;;;;;6.14;100.00;102622.72;5092127;28;20142;-76
2021/10/13 04:31:53;;;;;;;10.63;2.00;;;;;;;6.07;100.00;102623.06;5092545;28;20483;-76
2021/10/13 04:34:18;;;;;;;10.07;2.22;;;;;;;5.98;100.00;102622.53;5092259;28;20059;-76
2021/10/13 04:36:44;;;;;;;6.40;2.40;;;;;;;5.94;100.00;102627.97;5092556;28;20456;-77
2021/10/13 04:39:10;;;;;;;9.75;2.70;;;;;;;5.91;100.00;102626.34;5092061;28;20040;-78
2021/10/13 04:41:35;;;;;;;5.40;3.22;;;;;;;5.91;100.00;102633.41;5092488;28;20027;-76
2021/10/13 04:44:01;;;;;;;8.30;2.80;;;;;;;5.88;100.00;102629.13;5092595;28;20562;-76
2021/10/13 04:46:26;;;;;;;10.80;3.30;;;;;;;5.91;100.00;102636.91;5091924;28;20107;-75
2021/10/13 04:48:52;;;;;;;11.23;3.17;;;;;;;5.97;100.00;102626.13;5092318;28;20024;-76
2021/10/13 04:51:17;;;;;;;7.93;3.60;;;;;;;6.06;100.00;102629.28;5091357;28;20032;-76
2021/10/13 04:53:43;;;;;;;11.57;3.75;;;;;;;6.13;100.00;102631.59;5092409;28;20032;-77
2021/10/13 04:56:08;;;;;;;15.18;3.97;;;;;;;6.20;100.00;102626.91;5094757;28;20486;-75
2021/10/13 04:58:33;;;;;;;14.18;4.38;;;;;;;6.28;100.00;102626.56;5095820;28;20036;-78
2021/10/13 05:00:59;;;;;;;15.57;4.30;;;;;;;6.41;100.00;102634.81;5096567;28;20051;-75
2021/10/13 05:03:24;;;;;;;12.45;4.18;;;;;;;6.47;100.00;102634.53;5095491;28;20034;-75
2021/10/13 05:05:49;;;;;;;8.65;4.00;;;;;;;6.54;100.00;102633.34;5096018;28;20492;-76
2021/10/13 05:08:15;;;;;;;11.10;4.38;;;;;;;6.62;100.00;102635.66;5095696;28;20028;-74
2021/10/13 05:10:40;;;;;;;16.42;5.75;;;;;;;6.68;100.00;102640.66;5096178;28;20070;-73
2021/10/13 05:13:06;;;;;;;15.02;4.68;;;;;;;6.69;100.00;102635.28;5096437;28;20044;-73
2021/10/13 05:15:32;;;;;;;14.90;4.22;;;;;;;6.71;100.00;102628.13;5095502;28;20044;-75
2021/10/13 05:17:58;;;;;;;12.07;4.88;;;;;;;6.71;100.00;102630.78;5095776;28;20055;-76
2021/10/13 05:20:24;;;;;;;16.33;4.40;;;;;;;6.73;100.00;102640.44;5095355;28;20458;-76
2021/10/13 05:22:49;;;;;;;13.80;4.40;;;;;;;6.76;100.00;102630.56;5095681;28;20044;-73
2021/10/13 05:25:15;;;;;;;9.70;4.07;;;;;;;6.81;100.00;102640.97;5097842;28;20119;-75
2021/10/13 05:27:40;;;;;;;13.23;4.25;;;;;;;6.87;100.00;102635.38;5088780;28;20070;-77
2021/10/13 05:30:06;;;;;;;10.50;4.00;;;;;;;6.93;100.00;102639.53;5093066;28;20387;-75
2021/10/13 05:32:32;;;;;;;17.23;4.30;;;;;;;6.96;100.00;102642.03;5092642;28;20040;-76
2021/10/13 05:34:57;;;;;;;16.20;4.75;;;;;;;7.00;100.00;102652.41;5092788;28;20051;-76
2021/10/13 05:37:23;;;;;;;18.88;5.38;;;;;;;7.03;100.00;102656.69;5092402;28;20111;-77
2021/10/13 05:39:48;;;;;;;12.52;4.85;;;;;;;7.08;100.00;102652.03;5092696;28;20035;-75
2021/10/13 05:42:13;;;;;;;13.35;4.22;;;;;;;7.13;100.00;102651.81;5093160;28;20062;-75
2021/10/13 05:44:39;;;;;;;15.40;3.78;;;;;;;7.17;100.00;102646.31;5092390;28;20430;-74
2021/10/13 05:47:04;;;;;;;18.17;4.07;;;;;;;7.27;100.00;102653.81;5092739;28;20040;-77
2021/10/13 05:49:29;;;;;;;20.25;4.00;;;;;;;7.30;100.00;102651.91;5092016;28;20118;-76
2021/10/13 05:51:55;;;;;;;13.90;3.17;;;;;;;7.34;100.00;102647.28;5091864;28;20236;-79
2021/10/13 05:54:20;;;;;;;12.70;2.65;;;;;;;7.36;100.00;102653.38;5091825;28;20028;-77
2021/10/13 05:56:50;;;;;;;16.02;3.15;;;;;;;7.38;100.00;102651.53;5093022;28;20482;-79
2021/10/13 05:59:15;;;;;;;12.98;3.30;;;;;;;7.40;100.00;102653.16;5092414;28;20040;-77
2021/10/13 06:01:40;;;;;;;18.63;3.25;;;;;;;7.40;100.00;102658.47;5091675;28;20036;-79
2021/10/13 06:04:06;;;;;;;16.13;4.80;;;;;;;7.40;100.00;102666.41;5073980;28;20582;-78
2021/10/13 06:06:31;;;;;;;22.65;11.80;;;;;;;7.40;100.00;102662.88;5091033;28;20047;-80
2021/10/13 06:08:56;;;;;;;32.85;11.27;;;;;;;7.39;100.00;102669.97;5073767;28;20483;-81
2021/10/13 06:11:22;;;;;;;19.02;6.25;;;;;;;7.38;100.00;102670.06;5091649;28;20040;-77
2021/10/13 06:13:47;;;;;;;16.23;4.60;;;;;;;7.36;100.00;102664.84;5091996;28;20051;-77
2021/10/13 06:16:13;;;;;;;19.17;3.83;;;;;;;7.31;100.00;102669.47;5091350;28;20036;-75
2021/10/13 06:18:39;;;;;;;16.38;3.47;;;;;;;7.23;100.00;102667.19;5071607;28;20074;-75
2021/10/13 06:21:05;;;;;;;13.50;4.10;;;;;;;7.15;100.00;102673.78;5065894;28;20036;-76
2021/10/13 06:23:31;;;;;;;12.95;3.85;;;;;;;7.04;100.00;102683.06;5073765;28;20036;-77
2021/10/13 06:25:56;;;;;;;10.40;2.97;;;;;;;6.99;100.00;102689.53;5086819;28;20084;-78
2021/10/13 06:28:21;;;;;;;7.90;3.15;;;;;;;6.96;100.00;102692.31;5060306;28;20075;-77
2021/10/13 06:30:47;;;;;;;15.20;5.30;;;;;;;6.94;100.00;102691.50;5068897;28;20512;-78
2021/10/13 06:33:12;;;;;;;21.95;5.97;;;;;;;6.93;100.00;102682.72;5067555;28;20415;-75
2021/10/13 06:35:38;;;;;;;13.80;5.30;;;;;;;6.97;100.00;102692.25;5058934;28;20036;-77
2021/10/13 06:38:03;;;;;;;17.05;6.45;;;;;;;7.07;100.00;102698.81;5090089;28;20388;-76
2021/10/13 06:40:29;;;;;;;15.90;5.20;;;;;;;7.15;100.00;102695.84;5069935;28;20028;-75
2021/10/13 06:42:54;;;;;;;15.52;4.70;;;;;;;7.21;100.00;102692.91;5089722;28;20429;-76
2021/10/13 06:45:20;;;;;;;23.95;7.32;;;;;;;7.28;100.00;102697.91;5088822;28;20036;-77
2021/10/13 06:47:45;;;;;;;25.45;7.70;;;;;;;7.37;100.00;102697.47;5088809;28;20024;-77
2021/10/13 06:50:11;;;;;;;17.23;6.20;;;;;;;7.48;100.00;102703.13;5089968;28;20028;-73
2021/10/13 06:52:37;;;;;;;17.80;5.90;;;;;;;7.59;100.00;102699.94;5088288;28;20047;-74
2021/10/13 06:55:04;;;;;;;17.83;5.88;;;;;;;7.72;100.00;102708.19;5089612;28;20036;-75
2021/10/13 06:57:29;;;;;;;14.07;3.58;;;;;;;7.79;100.00;102706.06;5088760;28;20039;-76
2021/10/13 06:59:55;;;;;;;11.95;3.90;;;;;;;7.84;100.00;102712.00;5088736;28;20428;-75
2021/10/13 07:02:20;;;;;;;13.77;3.80;;;;;;;7.86;100.00;102708.34;5089418;28;20040;-76
2021/10/13 07:04:46;;;;;;;12.75;2.55;;;;;;;7.90;100.00;102714.38;5087923;28;20464;-73
2021/10/13 07:07:11;;;;;;;14.13;3.08;;;;;;;7.91;100.00;102711.63;5071915;28;20090;-77
2021/10/13 07:09:36;;;;;;;11.15;2.70;;;;;;;7.95;100.00;102709.69;5088001;28;20032;-76
2021/10/13 07:12:02;;;;;;;12.88;2.20;;;;;;;7.99;100.00;102715.69;5088364;28;20036;-75
2021/10/13 07:14:27;;;;;;;12.13;2.20;;;;;;;8.01;100.00;102717.31;5088485;28;20028;-77
2021/10/13 07:16:53;;;;;;;10.65;2.30;;;;;;;8.08;100.00;102709.94;5088832;28;20055;-74
2021/10/13 07:19:18;;;;;;;10.48;2.15;;;;;;;8.20;100.00;102711.13;5089317;28;20525;-73
2021/10/13 07:21:44;;;;;;;19.58;2.50;;;;;;;8.34;100.00;102713.91;5087964;28;20079;-73
2021/10/13 07:24:09;;;;;;;8.07;2.15;;;;;;;8.43;100.00;102718.75;5089384;28;20028;-75
2021/10/13 07:26:35;;;;;;;11.50;1.75;;;;;;;8.49;100.00;102719.41;5087569;28;20074;-78
2021/10/13 07:29:01;;;;;;;8.32;1.55;;;;;;;8.49;100.00;102719.41;5088367;28;20119;-77
2021/10/13 07:31:27;;;;;;;10.55;1.70;;;;;;;8.51;100.00;102718.38;5089290;28;20103;-76
2021/10/13 07:33:53;;;;;;;7.15;1.75;;;;;;;8.56;100.00;102723.44;5086842;28;20115;-78
2021/10/13 07:36:19;;;;;;;10.07;1.63;;;;;;;8.59;100.00;102721.47;5089201;28;20035;-77
2021/10/13 07:38:45;;;;;;;7.90;1.90;;;;;;;8.63;100.00;102717.75;5087507;28;20029;-76
2021/10/13 07:41:10;;;;;;;6.22;1.70;;;;;;;8.67;100.00;102714.91;5087841;28;20360;-78
2021/10/13 07:43:37;;;;;;;7.03;1.70;;;;;;;8.73;100.00;102709.28;5088339;28;20032;-77
2021/10/13 07:46:02;;;;;;;10.23;1.98;;;;;;;8.83;100.00;102711.34;5087021;28;20488;-75
2021/10/13 07:48:27;;;;;;;10.73;2.40;;;;;;;8.97;100.00;102710.63;5089208;28;20115;-77
2021/10/13 07:50:55;;;;;;;10.90;2.75;;;;;;;9.13;100.00;102720.41;5068774;28;20028;-75
2021/10/13 07:53:21;;;;;;;10.48;2.65;;;;;;;9.27;100.00;102727.63;5078062;28;20119;-75
2021/10/13 07:55:46;;;;;;;6.47;3.00;;;;;;;9.33;100.00;102721.97;5085532;28;20483;-75
2021/10/13 07:58:11;;;;;;;10.95;2.50;;;;;;;9.41;100.00;102722.41;5084357;28;20115;-78
2021/10/13 08:00:37;;;;;;;13.40;3.15;;;;;;;9.51;100.00;102720.97;5086411;28;20054;-75
2021/10/13 08:03:02;;;;;;;7.97;2.75;;;;;;;9.65;100.00;102721.97;5084205;28;20109;-76
2021/10/13 08:05:27;;;;;;;5.97;2.25;;;;;;;9.76;100.00;102724.88;5084144;28;20036;-80
2021/10/13 08:07:53;;;;;;;9.15;2.50;;;;;;;9.86;100.00;102730.53;5085348;28;20055;-73
2021/10/13 08:10:18;;;;;;;14.13;2.08;;;;;;;9.89;100.00;102725.03;5084788;28;20119;-76
2021/10/13 08:12:44;;;;;;;10.35;2.13;;;;;;;9.91;97.44;102728.44;5085752;28;20032;-73
2021/10/13 08:15:10;;;;;;;8.02;2.00;;;;;;;9.88;94.35;102734.81;5084295;28;20476;-76
2021/10/13 08:17:36;;;;;;;7.65;2.13;;;;;;;9.89;95.11;102739.16;5084180;28;20036;-76
2021/10/13 08:20:03;;;;;;;9.43;2.30;;;;;;;9.93;96.42;102741.66;5085144;28;20154;-79
2021/10/13 08:22:29;;;;;;;10.88;2.22;;;;;;;9.98;96.78;102752.91;5084760;28;20040;-77
2021/10/13 08:24:55;;;;;;;11.13;2.13;;;;;;;10.07;97.58;102755.88;5085418;28;20418;-78
2021/10/13 08:27:21;;;;;;;9.95;1.92;;;;;;;10.18;97.90;102757.03;5083885;28;20520;-77
2021/10/13 08:29:46;;;;;;;9.70;1.80;;;;;;;10.29;97.65;102759.09;5083529;28;20482;-75
2021/10/13 08:32:11;;;;;;;10.18;2.00;;;;;;;10.46;97.70;102760.78;5085496;28;20043;-77
2021/10/13 08:34:37;;;;;;;4.38;1.40;;;;;;;10.63;97.09;102759.75;5084508;28;20089;-76
2021/10/13 08:37:03;;;;;;;7.00;1.55;;;;;;;10.79;96.57;102762.34;5085765;28;20209;-77
2021/10/13 08:39:28;;;;;;;8.45;1.67;;;;;;;10.92;94.83;102768.66;5084580;28;20073;-77
2021/10/13 08:41:53;;;;;;;5.45;1.35;;;;;;;11.03;93.16;102766.19;5084934;28;20040;-78
2021/10/13 08:44:19;;;;;;;7.43;1.20;;;;;;;11.07;88.65;102765.03;5084007;28;20697;-80
2021/10/13 08:46:44;;;;;;;8.63;1.90;;;;;;;11.21;89.71;102764.19;5083280;28;20090;-82
2021/10/13 08:49:10;;;;;;;8.35;1.52;;;;;;;11.27;89.26;102758.47;5087759;28;20036;-77
2021/10/13 08:51:37;;;;;;;8.02;1.40;;;;;;;11.27;90.27;102771.78;5085999;28;20040;-77
2021/10/13 08:54:03;;;;;;;9.10;2.75;;;;;;;11.28;90.42;102776.16;5087743;28;20062;-81
2021/10/13 08:56:29;;;;;;;7.57;1.50;;;;;;;11.25;89.34;102773.69;5087834;28;20060;-78
2021/10/13 08:58:54;;;;;;;5.22;1.50;;;;;;;11.29;91.02;102777.03;5086069;28;20129;-80
2021/10/13 09:01:20;;;;;;;9.30;1.65;;;;;;;11.39;91.37;102772.84;5088325;28;20028;-81
2021/10/13 09:03:47;;;;;;;3.75;1.55;;;;;;;11.47;87.09;102777.66;5088087;28;20028;-78
2021/10/13 09:06:21;;;;;;;9.07;1.77;;;;;;;11.48;89.00;102776.72;5085814;28;20024;-79
2021/10/13 09:09:06;;;;;;;16.40;6.15;;;;;;;11.21;85.29;102774.84;5069026;28;20064;-87
2021/10/13 09:11:42;;;;;;;7.40;2.78;;;;;;;11.14;86.00;102773.50;5069980;28;20042;-83
2021/10/13 09:14:25;;;;;;;12.48;5.25;;;;;;;11.14;89.96;102775.28;5069428;28;20029;-80
2021/10/13 09:16:50;;;;;;;9.60;3.42;;;;;;;11.18;88.20;102769.72;5068994;28;20037;-80
2021/10/13 09:19:16;;;;;;;13.10;2.67;;;;;;;11.24;87.04;102768.44;5069097;28;20040;-78
2021/10/13 09:21:52;;;;;;;7.93;1.73;;;;;;;11.34;89.82;102769.59;5067639;28;20396;-78
2021/10/13 09:24:18;;;;;;;5.53;1.33;;;;;;;11.55;87.42;102767.34;5065141;28;20046;-73
2021/10/13 09:26:44;;;;;;;6.25;1.95;;;;;;;12.02;86.93;102769.72;5063599;28;20048;-80
2021/10/13 09:29:09;;;;;;;7.85;1.60;;;;;;;13.20;83.28;102771.47;5064562;28;20040;-77
2021/10/13 09:31:36;;;;;;;11.95;1.52;;;;;;;14.12;77.79;102777.28;5065250;28;20033;-80
2021/10/13 09:34:04;;;;;;;11.40;2.15;;;;;;;14.23;76.29;102777.31;5063566;28;20503;-78
2021/10/13 09:36:38;;;;;;;9.00;2.00;;;;;;;13.85;77.86;102773.03;5064765;28;20043;-77
2021/10/13 09:39:05;;;;;;;6.75;1.90;;;;;;;13.56;80.68;102783.19;5063598;28;20603;-77
2021/10/13 09:41:31;;;;;;;3.95;1.30;;;;;;;13.31;83.32;102784.06;5064552;28;20032;-80
2021/10/13 09:44:13;;;;;;;4.28;1.27;;;;;;;13.12;81.52;102785.38;5067832;28;20036;-80
2021/10/13 09:46:38;;;;;;;10.48;1.50;;;;;;;13.05;79.25;102787.63;5066788;28;20100;-76
2021/10/13 09:49:03;;;;;;;5.13;1.20;;;;;;;12.99;80.19;102798.75;5067797;28;20457;-79
2021/10/13 09:51:29;;;;;;;5.90;2.00;;;;;;;12.88;81.77;102795.94;5067010;28;20036;-79
2021/10/13 09:54:07;;;;;;;9.40;1.75;;;;;;;12.84;83.98;102802.50;5065666;28;20715;-79
2021/10/13 09:56:35;;;;;;;9.95;2.03;;;;;;;12.85;80.57;102791.69;5051201;28;20041;-74
2021/10/13 09:59:12;;;;;;;8.10;1.80;;;;;;;12.91;80.39;102798.41;5066083;28;20117;-74
2021/10/13 10:01:41;;;;;;;6.13;1.27;;;;;;;13.39;78.30;102793.28;5068003;28;20106;-84
2021/10/13 10:04:10;;;;;;;4.78;1.38;;;;;;;15.40;67.83;102794.22;5067265;28;20408;-75
2021/10/13 10:06:37;;;;;;;4.35;1.10;;;;;;;17.27;62.34;102794.72;5066119;28;20032;-77
2021/10/13 10:09:04;;;;;;;3.30;0.98;;;;;;;17.35;57.67;102794.06;5067692;28;20120;-77
2021/10/13 10:11:39;;;;;;;16.33;1.80;;;;;;;17.33;55.40;102788.81;5066330;28;20029;-76
2021/10/13 10:14:37;;;;;;;3.28;1.33;;;;;;;17.30;58.66;102799.81;5066343;28;20036;-78
2021/10/13 10:17:05;;;;;;;7.93;1.88;;;;;;;16.42;57.82;102796.63;5066988;28;20457;-78
2021/10/13 10:19:39;;;;;;;5.72;1.23;;;;;;;15.59;60.36;102800.78;5066042;28;20050;-78
2021/10/13 10:22:11;;;;;;;4.97;1.30;;;;;;;16.25;59.98;102792.66;5066159;28;20087;-77
2021/10/13 10:24:38;;;;;;;4.07;1.02;;;;;;;16.25;58.56;102799.88;5067255;28;20060;-79
2021/10/13 10:27:35;;;;;;;6.07;1.10;;;;;;;15.61;59.55;102794.28;5066031;28;20067;-78
2021/10/13 10:30:09;;;;;;;4.00;1.13;;;;;;;15.48;61.18;102796.25;5066723;28;20025;-76
2021/10/13 10:32:35;;;;;;;4.82;1.00;;;;;;;15.31;60.58;102803.84;5067686;28;20031;-77
2021/10/13 10:35:03;;;;;;;12.05;1.60;;;;;;;15.16;61.71;102811.28;5065144;28;20032;-75
2021/10/13 10:37:45;;;;;;;5.40;1.13;;;;;;;14.98;65.74;102807.38;5067283;28;20036;-76
2021/10/13 10:40:19;;;;;;;7.18;1.60;;;;;;;14.84;64.89;102808.47;5065632;28;20293;-76
2021/10/13 10:42:48;;;;;;;8.85;1.55;;;;;;;14.61;64.25;102816.44;5066132;28;20393;-76
2021/10/13 10:45:22;;;;;;;5.63;1.20;;;;;;;14.25;64.71;102815.53;5066815;28;20134;-78
2021/10/13 10:48:12;;;;;;;7.68;1.42;;;;;;;13.75;64.49;102810.31;5066660;28;20134;-76
2021/10/13 10:50:42;;;;;;;4.35;1.13;;;;;;;13.53;64.57;102813.66;5066795;28;20135;-77
2021/10/13 10:53:28;;;;;;;6.82;1.90;;;;;;;13.39;67.02;102805.78;5065574;28;20050;-85
2021/10/13 10:55:56;;;;;;;4.53;1.35;;;;;;;13.34;66.36;102811.44;5064911;28;20032;-80
2021/10/13 10:58:28;;;;;;;7.60;1.20;;;;;;;13.36;66.87;102811.34;5049676;28;20087;-78
2021/10/13 11:01:12;;;;;;;2.90;1.50;;;;;;;13.31;67.49;102813.47;5047537;28;20119;-78
2021/10/13 11:03:39;;;;;;;4.97;1.48;;;;;;;13.17;67.23;102803.75;5066013;28;20641;-80
2021/10/13 11:06:11;;;;;;;13.57;1.63;;;;;;;13.09;68.39;102804.28;5065677;28;20134;-77
2021/10/13 11:09:08;;;;;;;4.30;1.23;;;;;;;13.04;66.78;102806.44;5065313;28;20098;-76
2021/10/13 11:11:36;;;;;;;7.07;1.15;;;;;;;13.14;67.59;102812.84;5064480;28;20042;-79
2021/10/13 11:14:04;;;;;;;6.88;1.75;;;;;;;13.38;64.58;102814.78;5066380;28;20035;-78
2021/10/13 11:16:31;;;;;;;3.92;1.70;;;;;;;13.50;65.13;102821.06;5048016;28;20032;-83
2021/10/13 11:19:07;;;;;;;5.28;1.90;;;;;;;13.52;64.80;102827.16;5047834;28;20044;-80
2021/10/13 11:21:32;;;;;;;3.00;1.33;;;;;;;13.58;65.25;102822.22;5066393;28;20051;-80
2021/10/13 11:23:58;;;;;;;4.03;1.33;;;;;;;13.51;61.41;102817.41;5047229;28;20037;-76
2021/10/13 11:26:28;;;;;;;3.92;1.25;;;;;;;13.35;65.48;102815.84;5066331;28;20502;-78